sensor_id;sensor_type;location;lat;lon;timestamp;pressure;altitude;pressure_sealevel;temperature;humidity
50125;BME280;36023;48.670;6.184;2022-10-31T00:01:19;99454.88;;;21.74;46.46
50125;BME280;36023;48.670;6.184;2022-10-31T00:03:45;99456.66;;;21.73;46.50
50125;BME280;36023;48.670;6.184;2022-10-31T00:06:11;99451.47;;;21.72;46.44
50125;BME280;36023;48.670;6.184;2022-10-31T00:08:37;99461.09;;;21.73;46.49
50125;BME280;36023;48.670;6.184;2022-10-31T00:11:02;99454.13;;;21.72;46.48
50125;BME280;36023;48.670;6.184;2022-10-31T00:13:28;99466.34;;;21.73;46.56
50125;BME280;36023;48.670;6.184;2022-10-31T00:15:54;99460.25;;;21.72;46.43
50125;BME280;36023;48.670;6.184;2022-10-31T00:18:19;99462.88;;;21.72;46.44
50125;BME280;36023;48.670;6.184;2022-10-31T00:20:46;99451.47;;;21.72;46.32
50125;BME280;36023;48.670;6.184;2022-10-31T00:23:12;99458.44;;;21.73;46.15
50125;BME280;36023;48.670;6.184;2022-10-31T00:25:39;99465.56;;;21.70;46.58
50125;BME280;36023;48.670;6.184;2022-10-31T00:28:06;99467.31;;;21.72;46.37
50125;BME280;36023;48.670;6.184;2022-10-31T00:30:33;99455.88;;;21.71;46.36
50125;BME280;36023;48.670;6.184;2022-10-31T00:33:00;99462.03;;;21.72;46.44
50125;BME280;36023;48.670;6.184;2022-10-31T00:35:30;99461.16;;;21.71;46.25
50125;BME280;36023;48.670;6.184;2022-10-31T00:37:55;99468.22;;;21.70;46.41
50125;BME280;36023;48.670;6.184;2022-10-31T00:40:21;99461.16;;;21.71;46.32
50125;BME280;36023;48.670;6.184;2022-10-31T00:42:47;99455.88;;;21.71;46.24
50125;BME280;36023;48.670;6.184;2022-10-31T00:45:13;99455.03;;;21.70;46.49
50125;BME280;36023;48.670;6.184;2022-10-31T00:47:38;99453.25;;;21.71;46.39
50125;BME280;36023;48.670;6.184;2022-10-31T00:50:05;99455.03;;;21.70;46.19
50125;BME280;36023;48.670;6.184;2022-10-31T00:52:31;99458.59;;;21.69;46.47
50125;BME280;36023;48.670;6.184;2022-10-31T00:54:57;99451.53;;;21.70;46.10
50125;BME280;36023;48.670;6.184;2022-10-31T00:57:24;99449.00;;;21.68;46.28
50125;BME280;36023;48.670;6.184;2022-10-31T00:59:51;99448.16;;;21.68;46.07
50125;BME280;36023;48.670;6.184;2022-10-31T01:02:17;99451.75;;;21.67;46.01
50125;BME280;36023;48.670;6.184;2022-10-31T01:04:42;99447.41;;;21.66;46.06
50125;BME280;36023;48.670;6.184;2022-10-31T01:07:09;99444.78;;;21.66;46.20
50125;BME280;36023;48.670;6.184;2022-10-31T01:09:36;99442.16;;;21.66;46.16
50125;BME280;36023;48.670;6.184;2022-10-31T01:12:04;99444.88;;;21.64;45.99
50125;BME280;36023;48.670;6.184;2022-10-31T01:14:31;99437.81;;;21.65;46.09
50125;BME280;36023;48.670;6.184;2022-10-31T01:16:57;99440.44;;;21.65;46.01
50125;BME280;36023;48.670;6.184;2022-10-31T01:19:22;99445.72;;;21.65;46.03
50125;BME280;36023;48.670;6.184;2022-10-31T01:21:49;99439.59;;;21.64;46.03
50125;BME280;36023;48.670;6.184;2022-10-31T01:24:16;99441.47;;;21.62;45.98
50125;BME280;36023;48.670;6.184;2022-10-31T01:26:41;99440.53;;;21.63;46.03
50125;BME280;36023;48.670;6.184;2022-10-31T01:29:08;99440.53;;;21.63;45.84
50125;BME280;36023;48.670;6.184;2022-10-31T01:31:37;99436.19;;;21.62;46.00
50125;BME280;36023;48.670;6.184;2022-10-31T01:34:03;99431.75;;;21.63;45.74
50125;BME280;36023;48.670;6.184;2022-10-31T01:36:31;99442.25;;;21.64;45.92
50125;BME280;36023;48.670;6.184;2022-10-31T01:39:06;99433.50;;;21.64;46.06
50125;BME280;36023;48.670;6.184;2022-10-31T01:41:35;99437.91;;;21.63;46.08
50125;BME280;36023;48.670;6.184;2022-10-31T01:46:53;99437.03;;;21.63;45.94
50125;BME280;36023;48.670;6.184;2022-10-31T01:49:36;99431.75;;;21.63;46.02
50125;BME280;36023;48.670;6.184;2022-10-31T01:54:33;99423.00;;;21.62;46.03
50125;BME280;36023;48.670;6.184;2022-10-31T01:57:05;99424.81;;;21.62;46.07
50125;BME280;36023;48.670;6.184;2022-10-31T01:59:35;99416.03;;;21.61;46.01
50125;BME280;36023;48.670;6.184;2022-10-31T02:02:02;99414.25;;;21.62;45.87
50125;BME280;36023;48.670;6.184;2022-10-31T02:04:29;99408.13;;;21.61;45.83
50125;BME280;36023;48.670;6.184;2022-10-31T02:07:02;99408.13;;;21.61;45.95
50125;BME280;36023;48.670;6.184;2022-10-31T02:09:30;99408.13;;;21.61;45.86
50125;BME280;36023;48.670;6.184;2022-10-31T02:11:58;99399.38;;;21.61;45.88
50125;BME280;36023;48.670;6.184;2022-10-31T02:14:27;99401.19;;;21.60;45.82
50125;BME280;36023;48.670;6.184;2022-10-31T02:16:54;99399.47;;;21.59;46.03
50125;BME280;36023;48.670;6.184;2022-10-31T02:22:26;99396.84;;;21.59;45.94
50125;BME280;36023;48.670;6.184;2022-10-31T02:33:49;99389.78;;;21.60;45.64
50125;BME280;36023;48.670;6.184;2022-10-31T02:36:28;99391.56;;;21.59;45.94
50125;BME280;36023;48.670;6.184;2022-10-31T02:39:12;99388.94;;;21.59;45.67
50125;BME280;36023;48.670;6.184;2022-10-31T02:42:07;99389.03;;;21.58;45.96
50125;BME280;36023;48.670;6.184;2022-10-31T02:45:14;99398.63;;;21.59;45.63
50125;BME280;36023;48.670;6.184;2022-10-31T02:47:34;99389.88;;;21.58;45.86
50125;BME280;36023;48.670;6.184;2022-10-31T02:52:34;99384.72;;;21.57;45.72
50125;BME280;36023;48.670;6.184;2022-10-31T02:58:03;99382.13;;;21.55;45.73
50125;BME280;36023;48.670;6.184;2022-10-31T03:00:38;99385.72;;;21.54;45.68
50125;BME280;36023;48.670;6.184;2022-10-31T03:13:02;99384.88;;;21.54;45.71
50125;BME280;36023;48.670;6.184;2022-10-31T03:15:36;99385.72;;;21.54;45.81
50125;BME280;36023;48.670;6.184;2022-10-31T03:18:29;99377.91;;;21.53;45.53
50125;BME280;36023;48.670;6.184;2022-10-31T03:21:05;99378.84;;;21.52;45.80
50125;BME280;36023;48.670;6.184;2022-10-31T03:23:35;99375.28;;;21.53;45.86
50125;BME280;36023;48.670;6.184;2022-10-31T03:26:05;99377.06;;;21.52;45.50
50125;BME280;36023;48.670;6.184;2022-10-31T03:28:37;99375.28;;;21.53;45.73
50125;BME280;36023;48.670;6.184;2022-10-31T03:31:06;99369.16;;;21.52;45.77
50125;BME280;36023;48.670;6.184;2022-10-31T03:33:37;99366.63;;;21.51;45.50
50125;BME280;36023;48.670;6.184;2022-10-31T03:36:07;99368.41;;;21.50;45.51
50125;BME280;36023;48.670;6.184;2022-10-31T03:38:35;99373.69;;;21.50;45.64
50125;BME280;36023;48.670;6.184;2022-10-31T03:41:03;99373.59;;;21.52;45.61
50125;BME280;36023;48.670;6.184;2022-10-31T03:43:33;99365.69;;;21.52;45.57
50125;BME280;36023;48.670;6.184;2022-10-31T03:46:03;99366.63;;;21.51;45.68
50125;BME280;36023;48.670;6.184;2022-10-31T03:48:29;99365.69;;;21.52;45.63
50125;BME280;36023;48.670;6.184;2022-10-31T03:51:07;99363.16;;;21.50;45.53
50125;BME280;36023;48.670;6.184;2022-10-31T03:56:18;99352.59;;;21.50;45.53
50125;BME280;36023;48.670;6.184;2022-10-31T03:58:49;99347.34;;;21.50;45.81
50125;BME280;36023;48.670;6.184;2022-10-31T04:01:19;99355.25;;;21.50;45.65
50125;BME280;36023;48.670;6.184;2022-10-31T04:03:47;99346.50;;;21.50;45.42
50125;BME280;36023;48.670;6.184;2022-10-31T04:06:15;99351.75;;;21.50;45.31
50125;BME280;36023;48.670;6.184;2022-10-31T04:08:51;99344.78;;;21.49;45.57
50125;BME280;36023;48.670;6.184;2022-10-31T04:11:22;99349.22;;;21.48;45.50
50125;BME280;36023;48.670;6.184;2022-10-31T04:14:11;99353.56;;;21.49;45.64
50125;BME280;36023;48.670;6.184;2022-10-31T04:16:39;99351.84;;;21.48;45.64
50125;BME280;36023;48.670;6.184;2022-10-31T04:19:06;99359.75;;;21.48;45.57
50125;BME280;36023;48.670;6.184;2022-10-31T04:21:32;99343.06;;;21.48;45.37
50125;BME280;36023;48.670;6.184;2022-10-31T04:23:58;99358.88;;;21.48;45.35
50125;BME280;36023;48.670;6.184;2022-10-31T04:26:27;99355.41;;;21.47;45.46
50125;BME280;36023;48.670;6.184;2022-10-31T04:28:53;99362.41;;;21.48;45.51
50125;BME280;36023;48.670;6.184;2022-10-31T04:31:18;99358.03;;;21.47;45.33
50125;BME280;36023;48.670;6.184;2022-10-31T04:33:46;99360.69;;;21.47;45.26
50125;BME280;36023;48.670;6.184;2022-10-31T04:36:12;99365.94;;;21.47;45.33
50125;BME280;36023;48.670;6.184;2022-10-31T04:38:38;99369.44;;;21.48;45.47
50125;BME280;36023;48.670;6.184;2022-10-31T04:41:13;99361.63;;;21.46;45.54
50125;BME280;36023;48.670;6.184;2022-10-31T04:44:10;99355.50;;;21.46;45.31
50125;BME280;36023;48.670;6.184;2022-10-31T04:46:36;99362.47;;;21.47;45.47
50125;BME280;36023;48.670;6.184;2022-10-31T04:49:02;99360.78;;;21.46;45.48
50125;BME280;36023;48.670;6.184;2022-10-31T04:51:28;99353.81;;;21.45;45.54
50125;BME280;36023;48.670;6.184;2022-10-31T04:53:54;99348.53;;;21.45;45.46
50125;BME280;36023;48.670;6.184;2022-10-31T04:56:40;99348.63;;;21.43;45.33
50125;BME280;36023;48.670;6.184;2022-10-31T04:59:13;99341.59;;;21.44;45.54
50125;BME280;36023;48.670;6.184;2022-10-31T05:01:59;99346.00;;;21.43;45.52
50125;BME280;36023;48.670;6.184;2022-10-31T05:04:41;99340.75;;;21.43;45.16
50125;BME280;36023;48.670;6.184;2022-10-31T05:07:07;99337.25;;;21.42;45.46
50125;BME280;36023;48.670;6.184;2022-10-31T05:09:33;99333.78;;;21.42;45.48
50125;BME280;36023;48.670;6.184;2022-10-31T05:11:59;99342.53;;;21.42;45.34
50125;BME280;36023;48.670;6.184;2022-10-31T05:14:44;99340.84;;;21.41;45.34
50125;BME280;36023;48.670;6.184;2022-10-31T05:17:45;99333.88;;;21.40;45.31
50125;BME280;36023;48.670;6.184;2022-10-31T05:20:19;99325.97;;;21.40;45.45
50125;BME280;36023;48.670;6.184;2022-10-31T05:23:05;99327.75;;;21.40;45.41
50125;BME280;36023;48.670;6.184;2022-10-31T05:25:31;99326.88;;;21.39;45.22
50125;BME280;36023;48.670;6.184;2022-10-31T05:28:01;99318.13;;;21.39;45.44
50125;BME280;36023;48.670;6.184;2022-10-31T05:30:29;99315.50;;;21.39;45.41
50125;BME280;36023;48.670;6.184;2022-10-31T05:32:56;99306.75;;;21.38;45.43
50125;BME280;36023;48.670;6.184;2022-10-31T05:35:40;99316.34;;;21.39;45.10
50125;BME280;36023;48.670;6.184;2022-10-31T05:38:22;99306.75;;;21.38;45.39
50125;BME280;36023;48.670;6.184;2022-10-31T05:40:48;99305.91;;;21.38;45.42
50125;BME280;36023;48.670;6.184;2022-10-31T05:43:14;99300.63;;;21.38;45.23
50125;BME280;36023;48.670;6.184;2022-10-31T05:45:40;99298.94;;;21.37;45.36
50125;BME280;36023;48.670;6.184;2022-10-31T05:48:14;99298.00;;;21.38;45.18
50125;BME280;36023;48.670;6.184;2022-10-31T05:50:40;99294.53;;;21.37;45.03
50125;BME280;36023;48.670;6.184;2022-10-31T05:53:09;99298.94;;;21.37;45.27
50125;BME280;36023;48.670;6.184;2022-10-31T05:55:36;99296.31;;;21.37;45.17
50125;BME280;36023;48.670;6.184;2022-10-31T05:58:08;99295.38;;;21.38;45.23
50125;BME280;36023;48.670;6.184;2022-10-31T06:00:36;99291.97;;;21.36;45.24
50125;BME280;36023;48.670;6.184;2022-10-31T06:03:08;99296.31;;;21.37;45.12
50125;BME280;36023;48.670;6.184;2022-10-31T06:05:43;99290.19;;;21.36;45.06
50125;BME280;36023;48.670;6.184;2022-10-31T06:08:09;99282.38;;;21.35;45.26
50125;BME280;36023;48.670;6.184;2022-10-31T06:10:34;99285.03;;;21.35;45.33
50125;BME280;36023;48.670;6.184;2022-10-31T06:13:00;99284.19;;;21.34;45.25
50125;BME280;36023;48.670;6.184;2022-10-31T06:15:34;99291.13;;;21.35;45.32
50125;BME280;36023;48.670;6.184;2022-10-31T06:18:02;99292.09;;;21.34;45.21
50125;BME280;36023;48.670;6.184;2022-10-31T06:20:32;99289.44;;;21.34;45.02
50125;BME280;36023;48.670;6.184;2022-10-31T06:23:03;99283.34;;;21.34;45.13
50125;BME280;36023;48.670;6.184;2022-10-31T06:25:31;99283.34;;;21.34;45.19
50125;BME280;36023;48.670;6.184;2022-10-31T06:27:57;99283.34;;;21.34;44.97
50125;BME280;36023;48.670;6.184;2022-10-31T06:30:27;99287.75;;;21.33;45.26
50125;BME280;36023;48.670;6.184;2022-10-31T06:32:54;99286.91;;;21.33;45.04
50125;BME280;36023;48.670;6.184;2022-10-31T06:35:20;99291.25;;;21.34;45.08
50125;BME280;36023;48.670;6.184;2022-10-31T06:37:53;99286.91;;;21.33;45.25
50125;BME280;36023;48.670;6.184;2022-10-31T06:40:52;99288.69;;;21.32;45.08
50125;BME280;36023;48.670;6.184;2022-10-31T06:43:22;99291.34;;;21.32;45.09
50125;BME280;36023;48.670;6.184;2022-10-31T06:45:49;99290.41;;;21.33;45.15
50125;BME280;36023;48.670;6.184;2022-10-31T06:48:24;99288.78;;;21.31;45.15
50125;BME280;36023;48.670;6.184;2022-10-31T06:51:08;99301.00;;;21.32;45.06
50125;BME280;36023;48.670;6.184;2022-10-31T06:53:34;99300.16;;;21.31;45.24
50125;BME280;36023;48.670;6.184;2022-10-31T06:56:00;99300.25;;;21.30;45.21
50125;BME280;36023;48.670;6.184;2022-10-31T06:58:29;99304.56;;;21.31;45.04
50125;BME280;36023;48.670;6.184;2022-10-31T07:01:00;99306.38;;;21.30;45.05
50125;BME280;36023;48.670;6.184;2022-10-31T07:03:26;99301.09;;;21.30;45.21
50125;BME280;36023;48.670;6.184;2022-10-31T07:05:52;99291.50;;;21.29;45.19
50125;BME280;36023;48.670;6.184;2022-10-31T07:08:19;99303.72;;;21.30;45.11
50125;BME280;36023;48.670;6.184;2022-10-31T07:10:51;99298.56;;;21.29;45.08
50125;BME280;36023;48.670;6.184;2022-10-31T07:13:17;99301.28;;;21.27;45.03
50125;BME280;36023;48.670;6.184;2022-10-31T07:15:50;99301.19;;;21.29;45.12
50125;BME280;36023;48.670;6.184;2022-10-31T07:18:16;99308.25;;;21.28;45.12
50125;BME280;36023;48.670;6.184;2022-10-31T07:20:42;99304.78;;;21.28;45.06
50125;BME280;36023;48.670;6.184;2022-10-31T07:23:09;99304.78;;;21.28;45.03
50125;BME280;36023;48.670;6.184;2022-10-31T07:25:39;99304.78;;;21.28;45.41
50125;BME280;36023;48.670;6.184;2022-10-31T07:28:35;99306.63;;;21.26;45.07
50125;BME280;36023;48.670;6.184;2022-10-31T07:31:00;99309.19;;;21.27;45.02
50125;BME280;36023;48.670;6.184;2022-10-31T07:33:26;99311.91;;;21.26;45.08
50125;BME280;36023;48.670;6.184;2022-10-31T07:36:12;99307.47;;;21.26;45.09
50125;BME280;36023;48.670;6.184;2022-10-31T07:38:40;99304.94;;;21.25;45.27
50125;BME280;36023;48.670;6.184;2022-10-31T07:41:06;99316.31;;;21.25;45.25
50125;BME280;36023;48.670;6.184;2022-10-31T07:43:37;99313.69;;;21.25;45.24
50125;BME280;36023;48.670;6.184;2022-10-31T07:46:25;99309.34;;;21.24;45.13
50125;BME280;36023;48.670;6.184;2022-10-31T07:49:10;99300.59;;;21.24;45.25
50125;BME280;36023;48.670;6.184;2022-10-31T07:51:38;99307.56;;;21.25;45.28
50125;BME280;36023;48.670;6.184;2022-10-31T07:54:22;99298.78;;;21.24;45.21
50125;BME280;36023;48.670;6.184;2022-10-31T07:56:48;99303.22;;;21.24;45.32
50125;BME280;36023;48.670;6.184;2022-10-31T07:59:13;99301.53;;;21.23;45.32
50125;BME280;36023;48.670;6.184;2022-10-31T08:01:41;99295.41;;;21.22;45.16
50125;BME280;36023;48.670;6.184;2022-10-31T08:04:27;99305.94;;;21.22;45.28
50125;BME280;36023;48.670;6.184;2022-10-31T08:07:11;99300.69;;;21.22;45.08
50125;BME280;36023;48.670;6.184;2022-10-31T08:09:41;99298.88;;;21.23;45.26
50125;BME280;36023;48.670;6.184;2022-10-31T08:12:17;99292.78;;;21.22;45.28
50125;BME280;36023;48.670;6.184;2022-10-31T08:14:44;99291.09;;;21.21;45.14
50125;BME280;36023;48.670;6.184;2022-10-31T08:17:10;99293.72;;;21.21;45.20
50125;BME280;36023;48.670;6.184;2022-10-31T08:19:45;99291.09;;;21.21;45.34
50125;BME280;36023;48.670;6.184;2022-10-31T08:22:14;99293.72;;;21.21;45.38
50125;BME280;36023;48.670;6.184;2022-10-31T08:24:41;99287.59;;;21.21;45.45
50125;BME280;36023;48.670;6.184;2022-10-31T08:27:06;99283.28;;;21.20;45.28
50125;BME280;36023;48.670;6.184;2022-10-31T08:29:32;99284.22;;;21.19;45.25
50125;BME280;36023;48.670;6.184;2022-10-31T08:31:58;99276.22;;;21.20;45.39
50125;BME280;36023;48.670;6.184;2022-10-31T08:34:42;99275.38;;;21.20;45.42
50125;BME280;36023;48.670;6.184;2022-10-31T08:37:26;99283.28;;;21.20;45.35
50125;BME280;36023;48.670;6.184;2022-10-31T08:39:54;99278.03;;;21.20;45.24
50125;BME280;36023;48.670;6.184;2022-10-31T08:42:20;99284.13;;;21.20;45.22
50125;BME280;36023;48.670;6.184;2022-10-31T08:44:46;99272.75;;;21.20;45.28
50125;BME280;36023;48.670;6.184;2022-10-31T08:47:12;99272.75;;;21.20;45.35
50125;BME280;36023;48.670;6.184;2022-10-31T08:49:38;99278.88;;;21.20;45.53
50125;BME280;36023;48.670;6.184;2022-10-31T08:52:03;99268.44;;;21.19;45.54
50125;BME280;36023;48.670;6.184;2022-10-31T08:54:34;99267.59;;;21.18;45.55
50125;BME280;36023;48.670;6.184;2022-10-31T08:57:18;99264.94;;;21.18;45.41
50125;BME280;36023;48.670;6.184;2022-10-31T08:59:45;99263.16;;;21.19;45.53
50125;BME280;36023;48.670;6.184;2022-10-31T09:02:22;99269.28;;;21.19;45.36
50125;BME280;36023;48.670;6.184;2022-10-31T09:04:55;99255.25;;;21.19;45.48
50125;BME280;36023;48.670;6.184;2022-10-31T09:07:21;99250.84;;;21.19;45.46
50125;BME280;36023;48.670;6.184;2022-10-31T09:09:46;99254.31;;;21.20;45.34
50125;BME280;36023;48.670;6.184;2022-10-31T09:12:12;99246.50;;;21.18;45.63
50125;BME280;36023;48.670;6.184;2022-10-31T09:14:58;99248.19;;;21.19;45.57
50125;BME280;36023;48.670;6.184;2022-10-31T09:17:35;99238.31;;;21.23;45.86
50125;BME280;36023;48.670;6.184;2022-10-31T09:20:18;99239.16;;;21.23;45.80
50125;BME280;36023;48.670;6.184;2022-10-31T09:22:44;99232.28;;;21.21;45.48
50125;BME280;36023;48.670;6.184;2022-10-31T09:25:10;99235.88;;;21.20;45.71
50125;BME280;36023;48.670;6.184;2022-10-31T09:27:38;99243.03;;;21.18;45.54
50125;BME280;36023;48.670;6.184;2022-10-31T09:30:06;99246.50;;;21.18;45.49
50125;BME280;36023;48.670;6.184;2022-10-31T09:32:32;99241.31;;;21.17;45.61
50125;BME280;36023;48.670;6.184;2022-10-31T09:34:58;99244.81;;;21.17;45.68
50125;BME280;36023;48.670;6.184;2022-10-31T09:37:23;99243.03;;;21.18;45.70
50125;BME280;36023;48.670;6.184;2022-10-31T09:39:50;99241.25;;;21.18;45.62
50125;BME280;36023;48.670;6.184;2022-10-31T09:45:20;99233.50;;;21.15;45.49
50125;BME280;36023;48.670;6.184;2022-10-31T09:48:05;99229.09;;;21.15;45.62
50125;BME280;36023;48.670;6.184;2022-10-31T09:51:03;99232.56;;;21.16;45.72
50125;BME280;36023;48.670;6.184;2022-10-31T09:53:39;99231.72;;;21.15;45.76
50125;BME280;36023;48.670;6.184;2022-10-31T09:56:13;99230.88;;;21.15;45.80
50125;BME280;36023;48.670;6.184;2022-10-31T09:58:53;99236.13;;;21.15;45.82
50125;BME280;36023;48.670;6.184;2022-10-31T10:01:41;99229.09;;;21.15;45.88
50125;BME280;36023;48.670;6.184;2022-10-31T10:04:38;99228.34;;;21.13;45.85
50125;BME280;36023;48.670;6.184;2022-10-31T10:07:25;99245.00;;;21.14;45.77
50125;BME280;36023;48.670;6.184;2022-10-31T10:21:28;99224.75;;;21.14;45.95
50125;BME280;36023;48.670;6.184;2022-10-31T10:26:34;99235.50;;;21.11;45.93
50125;BME280;36023;48.670;6.184;2022-10-31T10:29:08;99238.97;;;21.12;45.97
50125;BME280;36023;48.670;6.184;2022-10-31T10:31:41;99233.72;;;21.12;45.99
50125;BME280;36023;48.670;6.184;2022-10-31T10:34:10;99235.41;;;21.13;45.84
50125;BME280;36023;48.670;6.184;2022-10-31T10:36:46;99232.84;;;21.11;46.03
50125;BME280;36023;48.670;6.184;2022-10-31T10:39:19;99235.28;;;21.14;46.50
50125;BME280;36023;48.670;6.184;2022-10-31T10:41:48;99241.13;;;21.20;46.74
50125;BME280;36023;48.670;6.184;2022-10-31T10:44:33;99245.19;;;21.25;47.21
50125;BME280;36023;48.670;6.184;2022-10-31T10:47:18;99233.66;;;21.28;47.52
50125;BME280;36023;48.670;6.184;2022-10-31T10:50:25;99234.41;;;21.30;47.85
50125;BME280;36023;48.670;6.184;2022-10-31T10:53:05;99224.69;;;21.30;48.14
50125;BME280;36023;48.670;6.184;2022-10-31T10:55:46;99221.13;;;21.31;48.39
50125;BME280;36023;48.670;6.184;2022-10-31T10:58:16;99212.38;;;21.31;48.92
50125;BME280;36023;48.670;6.184;2022-10-31T11:00:44;99203.63;;;21.30;48.99
50125;BME280;36023;48.670;6.184;2022-10-31T11:03:14;99207.09;;;21.31;49.24
50125;BME280;36023;48.670;6.184;2022-10-31T11:05:56;99202.78;;;21.30;49.51
50125;BME280;36023;48.670;6.184;2022-10-31T11:08:30;99204.56;;;21.29;49.44
50125;BME280;36023;48.670;6.184;2022-10-31T11:11:26;99194.13;;;21.28;49.74
50125;BME280;36023;48.670;6.184;2022-10-31T11:14:04;99183.59;;;21.28;49.35
50125;BME280;36023;48.670;6.184;2022-10-31T11:16:37;99174.91;;;21.26;49.90
50125;BME280;36023;48.670;6.184;2022-10-31T11:21:37;99177.63;;;21.24;49.80
50125;BME280;36023;48.670;6.184;2022-10-31T11:26:30;99159.28;;;21.23;49.84
50125;BME280;36023;48.670;6.184;2022-10-31T11:28:57;99151.50;;;21.21;50.10
50125;BME280;36023;48.670;6.184;2022-10-31T11:31:24;99149.78;;;21.20;49.92
50125;BME280;36023;48.670;6.184;2022-10-31T11:34:04;99148.97;;;21.20;50.16
50125;BME280;36023;48.670;6.184;2022-10-31T11:36:33;99153.28;;;21.21;50.10
50125;BME280;36023;48.670;6.184;2022-10-31T11:39:02;99151.59;;;21.20;50.10
50125;BME280;36023;48.670;6.184;2022-10-31T11:41:33;99146.31;;;21.20;49.95
50125;BME280;36023;48.670;6.184;2022-10-31T11:44:05;99136.72;;;21.19;50.04
50125;BME280;36023;48.670;6.184;2022-10-31T11:46:39;99142.00;;;21.19;50.00
50125;BME280;36023;48.670;6.184;2022-10-31T11:49:14;99129.78;;;21.18;50.04
50125;BME280;36023;48.670;6.184;2022-10-31T11:51:40;99128.06;;;21.17;49.95
50125;BME280;36023;48.670;6.184;2022-10-31T11:54:18;99119.25;;;21.18;50.14
50125;BME280;36023;48.670;6.184;2022-10-31T11:56:46;99110.50;;;21.17;50.08
50125;BME280;36023;48.670;6.184;2022-10-31T11:59:18;99112.25;;;21.17;49.80
50125;BME280;36023;48.670;6.184;2022-10-31T12:01:48;99106.06;;;21.18;50.11
50125;BME280;36023;48.670;6.184;2022-10-31T12:04:15;99093.81;;;21.17;49.98
50125;BME280;36023;48.670;6.184;2022-10-31T12:06:43;99092.13;;;21.15;49.94
50125;BME280;36023;48.670;6.184;2022-10-31T12:09:18;99081.59;;;21.15;49.92
50125;BME280;36023;48.670;6.184;2022-10-31T12:14:47;99089.50;;;21.15;49.81
50125;BME280;36023;48.670;6.184;2022-10-31T12:17:19;99086.97;;;21.14;49.81
50125;BME280;36023;48.670;6.184;2022-10-31T12:20:02;99090.44;;;21.14;49.82
50125;BME280;36023;48.670;6.184;2022-10-31T12:22:47;99080.84;;;21.13;49.63
50125;BME280;36023;48.670;6.184;2022-10-31T12:31:14;99051.78;;;21.15;50.05
50125;BME280;36023;48.670;6.184;2022-10-31T12:56:31;99017.06;;;21.23;50.78
50125;BME280;36023;48.670;6.184;2022-10-31T12:59:06;99003.88;;;21.23;50.87
50125;BME280;36023;48.670;6.184;2022-10-31T13:01:40;98997.66;;;21.24;50.84
50125;BME280;36023;48.670;6.184;2022-10-31T13:04:16;98998.63;;;21.23;50.75
50125;BME280;36023;48.670;6.184;2022-10-31T13:06:58;98982.91;;;21.21;50.74
50125;BME280;36023;48.670;6.184;2022-10-31T13:09:33;98989.88;;;21.22;50.77
50125;BME280;36023;48.670;6.184;2022-10-31T13:12:08;98988.06;;;21.23;50.77
50125;BME280;36023;48.670;6.184;2022-10-31T13:14:48;98982.81;;;21.23;50.77
50125;BME280;36023;48.670;6.184;2022-10-31T13:17:28;98978.31;;;21.25;51.01
50125;BME280;36023;48.670;6.184;2022-10-31T13:22:34;98961.56;;;21.26;50.91
50125;BME280;36023;48.670;6.184;2022-10-31T13:25:23;98964.19;;;21.26;50.76
50125;BME280;36023;48.670;6.184;2022-10-31T13:27:54;98957.97;;;21.27;50.97
50125;BME280;36023;48.670;6.184;2022-10-31T13:30:22;98953.66;;;21.26;50.80
50125;BME280;36023;48.670;6.184;2022-10-31T13:41:29;98938.81;;;21.25;50.69
50125;BME280;36023;48.670;6.184;2022-10-31T13:46:40;98940.50;;;21.26;50.80
50125;BME280;36023;48.670;6.184;2022-10-31T13:52:12;98936.06;;;21.26;50.53
50125;BME280;36023;48.670;6.184;2022-10-31T13:54:49;98936.00;;;21.28;50.50
50125;BME280;36023;48.670;6.184;2022-10-31T13:57:41;98931.63;;;21.27;50.61
50125;BME280;36023;48.670;6.184;2022-10-31T14:02:48;98931.56;;;21.28;50.61
50125;BME280;36023;48.670;6.184;2022-10-31T14:05:34;98936.91;;;21.27;50.44
50125;BME280;36023;48.670;6.184;2022-10-31T14:08:04;98924.69;;;21.26;50.58
50125;BME280;36023;48.670;6.184;2022-10-31T14:10:37;98921.22;;;21.25;50.38
50125;BME280;36023;48.670;6.184;2022-10-31T14:13:13;98920.38;;;21.25;50.62
50125;BME280;36023;48.670;6.184;2022-10-31T14:15:42;98921.28;;;21.24;50.40
50125;BME280;36023;48.670;6.184;2022-10-31T14:18:23;98922.13;;;21.24;50.41
50125;BME280;36023;48.670;6.184;2022-10-31T14:20:51;98923.06;;;21.23;50.60
50125;BME280;36023;48.670;6.184;2022-10-31T14:23:38;98918.66;;;21.24;50.27
50125;BME280;36023;48.670;6.184;2022-10-31T14:28:53;98917.81;;;21.23;50.35
50125;BME280;36023;48.670;6.184;2022-10-31T14:31:37;98920.38;;;21.25;50.53
50125;BME280;36023;48.670;6.184;2022-10-31T14:34:42;98916.84;;;21.24;50.42
50125;BME280;36023;48.670;6.184;2022-10-31T14:50:57;98912.53;;;21.23;50.47
50125;BME280;36023;48.670;6.184;2022-10-31T14:53:29;98904.75;;;21.22;50.50
50125;BME280;36023;48.670;6.184;2022-10-31T14:55:58;98914.22;;;21.24;50.50
50125;BME280;36023;48.670;6.184;2022-10-31T14:58:38;98905.47;;;21.24;50.41
50125;BME280;36023;48.670;6.184;2022-10-31T15:01:06;98912.47;;;21.25;50.53
50125;BME280;36023;48.670;6.184;2022-10-31T15:03:36;98907.19;;;21.25;50.42
50125;BME280;36023;48.670;6.184;2022-10-31T15:06:10;98912.47;;;21.25;50.54
50125;BME280;36023;48.670;6.184;2022-10-31T15:11:10;98908.88;;;21.26;50.53
50125;BME280;36023;48.670;6.184;2022-10-31T15:16:21;98903.69;;;21.24;50.41
50125;BME280;36023;48.670;6.184;2022-10-31T15:19:09;98893.16;;;21.24;50.52
50125;BME280;36023;48.670;6.184;2022-10-31T15:21:40;98904.56;;;21.25;50.54
50125;BME280;36023;48.670;6.184;2022-10-31T15:24:11;98897.56;;;21.24;50.32
50125;BME280;36023;48.670;6.184;2022-10-31T15:26:39;98893.16;;;21.24;50.33
50125;BME280;36023;48.670;6.184;2022-10-31T15:29:13;98894.94;;;21.24;50.54
50125;BME280;36023;48.670;6.184;2022-10-31T15:31:49;98891.47;;;21.23;50.44
50125;BME280;36023;48.670;6.184;2022-10-31T15:34:20;98896.75;;;21.23;50.41
50125;BME280;36023;48.670;6.184;2022-10-31T15:36:48;98893.25;;;21.23;50.31